Time;durP1;ratioP1;P1;durP2;ratioP2;P2;SDS_P1;SDS_P2;PMS_P1;PMS_P2;Temp;Humidity;BMP_temperature;BMP_pressure;BME280_temperature;BME280_humidity;BME280_pressure;Samples;Min_cycle;Max_cycle;Signal;HPM_P1;HPM_P2
2023/11/14 00:00:58;;;;;;;6.40;1.63;;;;;;;8.85;100.00;98910.50;7371381;19;20402;-48
2023/11/14 00:03:29;;;;;;;8.47;2.10;;;;;;;8.89;100.00;98897.75;7393542;19;20387;-44
2023/11/14 00:06:02;;;;;;;8.93;2.13;;;;;;;8.97;100.00;98895.31;7371713;19;20829;-46
2023/11/14 00:08:32;;;;;;;29.73;3.20;;;;;;;8.99;100.00;98897.91;7393453;19;20395;-44
2023/11/14 00:11:05;;;;;;;21.07;3.37;;;;;;;8.96;100.00;98896.16;7371696;19;20770;-44
2023/11/14 00:13:35;;;;;;;14.73;2.73;;;;;;;9.03;100.00;98895.41;7397347;19;20487;-47
2023/11/14 00:16:05;;;;;;;16.73;3.90;;;;;;;8.98;100.00;98886.75;7374844;19;20438;-44
2023/11/14 00:18:35;;;;;;;19.27;3.03;;;;;;;8.97;100.00;98900.44;7396616;19;20416;-44
2023/11/14 00:21:08;;;;;;;20.60;2.97;;;;;;;9.15;100.00;98899.06;7371358;19;20407;-45
2023/11/14 00:23:37;;;;;;;9.23;2.30;;;;;;;9.17;100.00;98890.53;7393255;19;20392;-45
2023/11/14 00:26:07;;;;;;;10.97;2.13;;;;;;;9.21;100.00;98876.00;7371611;19;20406;-47
2023/11/14 00:28:37;;;;;;;7.87;1.67;;;;;;;9.24;100.00;98877.75;7395608;19;20398;-45
2023/11/14 00:31:07;;;;;;;10.83;2.17;;;;;;;9.21;100.00;98882.84;7371575;19;20423;-44
2023/11/14 00:33:37;;;;;;;7.43;2.07;;;;;;;9.23;100.00;98876.03;7399694;19;20475;-45
2023/11/14 00:36:09;;;;;;;25.53;2.63;;;;;;;9.24;100.00;98868.34;7374045;19;20519;-44
2023/11/14 00:38:39;;;;;;;16.23;2.93;;;;;;;9.18;100.00;98857.94;7396952;19;20400;-45
2023/11/14 00:41:09;;;;;;;20.37;3.10;;;;;;;9.22;100.00;98864.00;7371137;19;20433;-43
2023/11/14 00:43:39;;;;;;;21.97;3.40;;;;;;;9.13;100.00;98870.72;7394537;19;20415;-44
2023/11/14 00:46:15;;;;;;;14.00;3.90;;;;;;;9.08;100.00;98871.47;7372464;19;20431;-45
2023/11/14 00:48:46;;;;;;;17.30;3.43;;;;;;;9.12;100.00;98878.44;7398318;19;20391;-44
2023/11/14 00:51:18;;;;;;;25.77;3.43;;;;;;;9.09;100.00;98879.25;7371881;19;20958;-44
2023/11/14 00:53:50;;;;;;;13.70;2.73;;;;;;;9.08;100.00;98889.50;7396025;19;20407;-45
2023/11/14 00:56:19;;;;;;;20.97;3.17;;;;;;;8.99;100.00;98893.66;7371159;19;20419;-46
2023/11/14 00:58:49;;;;;;;15.23;2.97;;;;;;;8.90;100.00;98893.47;7396127;19;20416;-43
2023/11/14 01:01:19;;;;;;;16.73;2.90;;;;;;;8.90;100.00;98891.75;7372531;19;20455;-44
2023/11/14 01:03:49;;;;;;;14.20;2.87;;;;;;;8.84;100.00;98893.34;7396381;19;20403;-43
2023/11/14 01:06:21;;;;;;;22.07;2.30;;;;;;;8.84;100.00;98914.78;7368156;19;20514;-44
2023/11/14 01:08:51;;;;;;;22.63;3.53;;;;;;;8.83;100.00;98905.34;7395352;19;20414;-43
2023/11/14 01:11:23;;;;;;;23.53;3.10;;;;;;;8.77;100.00;98906.09;7369356;19;20433;-44
2023/11/14 01:13:55;;;;;;;24.27;3.40;;;;;;;8.78;100.00;98905.25;7391778;19;20903;-46
2023/11/14 01:16:25;;;;;;;27.30;5.77;;;;;;;8.85;100.00;98902.78;7370375;19;20411;-44
2023/11/14 01:18:56;;;;;;;31.60;3.50;;;;;;;8.85;100.00;98897.66;7393310;19;20391;-44
2023/11/14 01:21:28;;;;;;;17.47;3.63;;;;;;;8.85;100.00;98884.78;7370163;19;20403;-44
2023/11/14 01:23:58;;;;;;;15.23;3.30;;;;;;;8.87;100.00;98870.28;7393690;19;20423;-47
2023/11/14 01:26:35;;;;;;;19.13;3.60;;;;;;;8.91;100.00;98874.59;7369582;19;20424;-44
2023/11/14 01:29:05;;;;;;;22.57;3.83;;;;;;;9.02;100.00;98855.09;7391591;19;20391;-45
2023/11/14 01:31:34;;;;;;;15.07;2.90;;;;;;;9.01;100.00;98845.66;7370958;19;20430;-41
2023/11/14 01:34:04;;;;;;;18.47;4.43;;;;;;;8.94;100.00;98838.66;7389891;19;20391;-44
2023/11/14 01:36:37;;;;;;;26.27;3.73;;;;;;;8.87;100.00;98832.53;7369817;19;20400;-45
2023/11/14 01:39:08;;;;;;;20.23;3.17;;;;;;;8.85;100.00;98852.22;7392715;19;20445;-43
2023/11/14 01:41:38;;;;;;;25.90;2.33;;;;;;;8.96;100.00;98842.13;7369582;19;20395;-45
2023/11/14 01:44:09;;;;;;;7.90;1.97;;;;;;;8.91;100.00;98838.59;7392926;19;20392;-43
2023/11/14 01:46:38;;;;;;;12.90;2.90;;;;;;;8.90;100.00;98836.88;7363736;19;20423;-47
2023/11/14 01:49:08;;;;;;;18.73;3.03;;;;;;;8.99;100.00;98841.31;7390832;19;20400;-43
2023/11/14 01:51:42;;;;;;;6.20;1.53;;;;;;;8.93;100.00;98847.22;7368915;19;20819;-45
2023/11/14 01:54:12;;;;;;;10.23;1.67;;;;;;;8.81;100.00;98836.72;7393110;19;20384;-44
2023/11/14 01:56:44;;;;;;;14.87;2.40;;;;;;;8.74;100.00;98857.19;7368876;19;20439;-44
2023/11/14 01:59:13;;;;;;;15.00;2.17;;;;;;;8.74;100.00;98846.91;7396180;19;20396;-44
2023/11/14 02:01:43;;;;;;;17.80;2.37;;;;;;;8.83;100.00;98850.47;7368993;19;20402;-44
2023/11/14 02:04:17;;;;;;;14.10;1.70;;;;;;;8.83;100.00;98860.75;7388122;19;20422;-44
2023/11/14 02:06:50;;;;;;;14.53;3.10;;;;;;;8.82;100.00;98861.59;7369383;19;21369;-45
2023/11/14 02:09:20;;;;;;;14.83;2.60;;;;;;;8.77;100.00;98856.38;7393770;19;20407;-45
2023/11/14 02:11:50;;;;;;;14.63;1.67;;;;;;;8.68;100.00;98864.78;7372006;19;20445;-46
2023/11/14 02:14:20;;;;;;;23.17;2.50;;;;;;;8.71;100.00;98862.25;7394158;19;20479;-45
2023/11/14 02:16:53;;;;;;;14.23;2.53;;;;;;;8.74;100.00;98862.31;7372372;19;20411;-45
2023/11/14 02:19:23;;;;;;;15.43;3.23;;;;;;;8.77;100.00;98856.38;7393951;19;20422;-44
2023/11/14 02:21:55;;;;;;;11.97;3.27;;;;;;;8.84;100.00;98836.75;7371209;19;20423;-46
2023/11/14 02:24:25;;;;;;;13.27;2.50;;;;;;;8.82;100.00;98849.59;7395856;19;20410;-44
2023/11/14 02:26:58;;;;;;;9.90;1.87;;;;;;;8.66;100.00;99007.84;7370434;19;20499;-47
2023/11/14 02:29:27;;;;;;;18.97;3.30;;;;;;;8.50;100.00;98983.47;7395354;19;20508;-49
2023/11/14 02:31:57;;;;;;;10.83;2.30;;;;;;;8.38;100.00;99066.31;7370556;19;20431;-46
2023/11/14 02:34:27;;;;;;;23.70;4.07;;;;;;;8.24;100.00;99131.09;7394061;19;20403;-47
2023/11/14 02:36:56;;;;;;;15.53;2.77;;;;;;;8.22;100.00;99217.53;7371888;19;20422;-47
2023/11/14 02:39:28;;;;;;;13.57;2.20;;;;;;;8.27;100.00;99252.75;7394653;19;20404;-46
2023/11/14 02:42:00;;;;;;;13.03;2.20;;;;;;;8.22;100.00;99279.19;7371965;19;20451;-46
2023/11/14 02:44:30;;;;;;;17.40;2.90;;;;;;;8.31;100.00;99277.72;7393334;19;20411;-45
2023/11/14 02:47:00;;;;;;;21.10;3.87;;;;;;;8.37;100.00;99294.16;7369131;19;20526;-45
2023/11/14 02:49:43;;;;;;;22.50;3.40;;;;;;;8.34;100.00;99294.09;7393882;19;20399;-46
2023/11/14 02:52:13;;;;;;;15.90;2.30;;;;;;;8.38;100.00;99297.63;7370476;19;20443;-46
2023/11/14 02:54:42;;;;;;;9.93;1.90;;;;;;;8.42;100.00;99291.75;7393705;19;20487;-45
2023/11/14 02:57:15;;;;;;;14.50;2.37;;;;;;;8.51;100.00;99267.97;7369940;19;20435;-46
2023/11/14 02:59:44;;;;;;;18.43;2.87;;;;;;;8.54;100.00;99213.22;7394806;19;20403;-47
2023/11/14 03:02:14;;;;;;;11.73;1.70;;;;;;;8.55;100.00;99161.00;7369618;19;20429;-47
2023/11/14 03:04:43;;;;;;;10.73;1.67;;;;;;;8.55;100.00;99137.88;7394889;19;20517;-45
2023/11/14 03:07:13;;;;;;;16.97;2.20;;;;;;;8.64;100.00;99051.53;7368275;19;20443;-46
2023/11/14 03:09:43;;;;;;;18.20;2.10;;;;;;;8.62;100.00;98990.63;7394034;19;20946;-44
2023/11/14 03:12:15;;;;;;;10.77;2.13;;;;;;;8.67;100.00;98949.59;7367208;19;20804;-44
2023/11/14 03:14:45;;;;;;;8.30;1.67;;;;;;;8.69;100.00;98899.94;7394797;19;20796;-44
2023/11/14 03:17:15;;;;;;;9.73;2.37;;;;;;;8.56;100.00;98918.53;7369548;19;20886;-45
2023/11/14 03:19:44;;;;;;;7.93;1.73;;;;;;;8.48;100.00;98947.47;7394530;19;20396;-45
2023/11/14 03:22:14;;;;;;;20.67;2.27;;;;;;;8.48;100.00;98939.75;7369354;19;20807;-47
2023/11/14 03:24:44;;;;;;;19.33;3.60;;;;;;;8.45;100.00;98957.69;7392915;19;20404;-46
2023/11/14 03:27:16;;;;;;;16.80;2.53;;;;;;;8.43;100.00;98954.22;7369075;19;21125;-45
2023/11/14 03:29:46;;;;;;;8.17;1.83;;;;;;;8.40;100.00;98964.41;7392831;19;20784;-45
2023/11/14 03:32:16;;;;;;;9.83;1.63;;;;;;;8.41;100.00;98960.16;7368954;19;20450;-45
2023/11/14 03:34:46;;;;;;;12.13;1.70;;;;;;;8.39;100.00;98962.69;7393816;19;20424;-46
2023/11/14 03:37:15;;;;;;;15.90;1.97;;;;;;;8.35;100.00;98966.88;7369634;19;20423;-44
2023/11/14 03:39:45;;;;;;;10.23;2.00;;;;;;;8.35;100.00;98996.84;7393365;19;20954;-46
2023/11/14 03:42:18;;;;;;;11.67;2.33;;;;;;;8.38;100.00;99008.06;7368659;19;20436;-48
2023/11/14 03:44:48;;;;;;;10.73;1.60;;;;;;;8.41;100.00;99012.41;7393669;19;20424;-44
2023/11/14 03:47:17;;;;;;;10.17;1.17;;;;;;;8.51;100.00;98992.91;7369335;19;20435;-44
2023/11/14 03:49:47;;;;;;;18.43;3.53;;;;;;;8.54;100.00;98958.72;7391583;19;20407;-46
2023/11/14 03:52:17;;;;;;;9.90;2.00;;;;;;;8.56;100.00;98921.09;7368828;19;20507;-45
2023/11/14 03:54:47;;;;;;;12.47;3.60;;;;;;;8.59;100.00;98887.72;7391863;19;20963;-48
2023/11/14 03:57:19;;;;;;;13.43;2.30;;;;;;;8.62;100.00;98854.38;7373957;19;20423;-44
2023/11/14 03:59:49;;;;;;;7.80;2.20;;;;;;;8.58;100.00;98845.75;7400770;19;20411;-46
2023/11/14 04:02:18;;;;;;;29.37;2.27;;;;;;;8.56;100.00;98851.69;7375413;19;20435;-44
2023/11/14 04:04:48;;;;;;;15.53;3.10;;;;;;;8.59;100.00;98846.59;7398192;19;20415;-45
2023/11/14 04:07:18;;;;;;;7.47;1.90;;;;;;;8.55;100.00;98842.25;7373828;19;20423;-45
2023/11/14 04:09:47;;;;;;;10.20;1.80;;;;;;;8.47;100.00;98857.47;7397428;19;20403;-44
2023/11/14 04:12:19;;;;;;;15.37;2.53;;;;;;;8.42;100.00;98874.50;7375872;19;20429;-45
2023/11/14 04:14:49;;;;;;;12.07;1.77;;;;;;;8.38;100.00;98915.53;7400312;19;20429;-46
2023/11/14 04:17:19;;;;;;;11.90;2.03;;;;;;;8.37;100.00;98920.69;7375125;19;20433;-44
2023/11/14 04:19:49;;;;;;;8.93;2.10;;;;;;;8.38;100.00;98953.25;7400245;19;20395;-44
2023/11/14 04:22:18;;;;;;;14.53;2.43;;;;;;;8.34;100.00;98992.53;7375567;19;20458;-44
2023/11/14 04:24:48;;;;;;;13.80;1.70;;;;;;;8.37;100.00;99019.19;7400440;19;20435;-45
2023/11/14 04:27:20;;;;;;;15.83;2.57;;;;;;;8.31;100.00;99065.28;7374038;19;20427;-45
2023/11/14 04:29:50;;;;;;;7.27;2.00;;;;;;;8.30;100.00;99101.25;7396693;19;20769;-45
2023/11/14 04:32:19;;;;;;;7.53;1.97;;;;;;;8.23;100.00;99177.31;7374977;19;20518;-44
2023/11/14 04:34:49;;;;;;;18.97;1.80;;;;;;;8.21;100.00;99246.63;7397784;19;20449;-45
2023/11/14 04:37:18;;;;;;;13.77;1.83;;;;;;;8.20;100.00;99280.84;7375087;19;20978;-48
2023/11/14 04:39:48;;;;;;;19.30;3.77;;;;;;;8.15;100.00;99328.66;7399113;19;20964;-46
2023/11/14 04:42:20;;;;;;;12.57;2.97;;;;;;;8.15;100.00;99318.41;7374580;19;20849;-46
2023/11/14 04:44:53;;;;;;;10.07;1.77;;;;;;;8.16;100.00;99315.00;7398943;19;20459;-45
2023/11/14 04:47:23;;;;;;;14.97;1.70;;;;;;;8.12;100.00;99349.16;7375007;19;20436;-45
2023/11/14 04:49:52;;;;;;;15.70;3.00;;;;;;;8.13;100.00;99345.75;7397322;19;20758;-45
2023/11/14 04:52:22;;;;;;;14.17;3.03;;;;;;;8.13;100.00;99355.16;7374859;19;20467;-45
2023/11/14 04:54:52;;;;;;;8.03;2.13;;;;;;;8.18;100.00;99313.34;7396782;19;20846;-45
2023/11/14 04:57:24;;;;;;;9.50;2.20;;;;;;;8.26;100.00;99305.00;7374129;19;20439;-46
2023/11/14 04:59:54;;;;;;;10.13;1.60;;;;;;;8.26;100.00;99310.13;7397138;19;20436;-49
2023/11/14 05:02:23;;;;;;;5.43;1.57;;;;;;;8.23;100.00;99347.78;7373356;19;20419;-45
2023/11/14 05:04:53;;;;;;;15.63;1.63;;;;;;;8.21;100.00;99353.69;7397224;19;20491;-45
2023/11/14 05:07:23;;;;;;;18.67;1.73;;;;;;;8.17;100.00;99347.59;7369868;19;20419;-46
2023/11/14 05:09:53;;;;;;;8.70;2.20;;;;;;;8.20;100.00;99373.38;7395946;19;20424;-45
2023/11/14 05:12:25;;;;;;;15.93;1.70;;;;;;;8.23;100.00;99391.44;7373788;19;20423;-45
2023/11/14 05:14:55;;;;;;;11.43;2.27;;;;;;;8.17;100.00;99388.69;7397195;19;20431;-44
2023/11/14 05:17:24;;;;;;;22.03;2.60;;;;;;;8.11;100.00;99407.34;7374163;19;20973;-46
2023/11/14 05:19:57;;;;;;;18.33;2.17;;;;;;;8.09;100.00;99398.75;7396652;19;20404;-45
2023/11/14 05:22:26;;;;;;;22.90;3.73;;;;;;;8.06;100.00;99410.63;7373857;19;20438;-46
2023/11/14 05:24:56;;;;;;;18.50;2.67;;;;;;;8.06;100.00;99400.34;7396113;19;20443;-46
2023/11/14 05:27:28;;;;;;;19.70;3.63;;;;;;;8.04;100.00;99366.00;7373571;19;20869;-45
2023/11/14 05:29:58;;;;;;;6.33;1.40;;;;;;;8.01;100.00;99340.25;7396001;19;20434;-44
2023/11/14 05:32:27;;;;;;;13.63;2.60;;;;;;;8.01;100.00;99214.38;7373565;19;20423;-47
2023/11/14 05:34:57;;;;;;;18.87;3.03;;;;;;;8.03;100.00;99163.91;7396575;19;20479;-45
2023/11/14 05:37:27;;;;;;;19.97;3.00;;;;;;;8.04;100.00;99142.53;7373224;19;20427;-45
2023/11/14 05:39:57;;;;;;;21.00;2.67;;;;;;;8.02;100.00;99091.16;7398058;19;20483;-48
2023/11/14 05:42:29;;;;;;;15.40;2.30;;;;;;;8.04;100.00;99075.75;7372836;19;20433;-45
2023/11/14 05:44:58;;;;;;;18.13;3.70;;;;;;;8.02;100.00;99059.44;7395796;19;20967;-49
2023/11/14 05:47:28;;;;;;;12.50;2.50;;;;;;;8.05;100.00;99039.00;7372981;19;21038;-48
2023/11/14 05:49:58;;;;;;;19.57;1.70;;;;;;;8.04;100.00;99060.34;7395085;19;20404;-47
2023/11/14 05:52:28;;;;;;;6.67;1.90;;;;;;;8.02;100.00;99065.47;7373849;19;20479;-45
2023/11/14 05:54:58;;;;;;;5.67;1.50;;;;;;;8.05;100.00;99070.66;7397488;19;20813;-45
2023/11/14 05:57:30;;;;;;;10.23;1.93;;;;;;;8.05;100.00;99072.38;7372815;19;20427;-48
2023/11/14 05:59:59;;;;;;;18.67;2.10;;;;;;;8.07;100.00;99101.53;7396043;19;20404;-45
2023/11/14 06:02:29;;;;;;;8.30;1.60;;;;;;;8.09;100.00;99117.84;7372493;19;20454;-45
2023/11/14 06:04:59;;;;;;;4.83;1.33;;;;;;;8.06;100.00;99128.06;7396849;19;20821;-46
2023/11/14 06:07:31;;;;;;;7.97;2.10;;;;;;;8.06;100.00;99174.28;7370448;19;20451;-46
2023/11/14 06:10:01;;;;;;;13.77;3.63;;;;;;;8.07;100.00;99223.16;7393537;19;21181;-47
2023/11/14 06:12:33;;;;;;;7.63;1.30;;;;;;;8.08;100.00;99260.84;7372987;19;20506;-45
2023/11/14 06:15:02;;;;;;;3.73;1.07;;;;;;;8.09;100.00;99334.50;7393946;19;20500;-46
2023/11/14 06:17:32;;;;;;;11.50;2.00;;;;;;;8.10;100.00;99361.06;7372249;19;20494;-45
2023/11/14 06:20:02;;;;;;;7.50;2.23;;;;;;;8.11;100.00;99383.38;7394027;19;20423;-46
2023/11/14 06:22:34;;;;;;;5.10;1.17;;;;;;;8.10;100.00;99399.59;7373269;19;20982;-44
2023/11/14 06:25:05;;;;;;;9.27;1.30;;;;;;;8.10;100.00;99418.47;7393544;19;20511;-45
2023/11/14 06:27:38;;;;;;;8.70;1.57;;;;;;;8.10;100.00;99435.56;7373241;19;20535;-45
2023/11/14 06:30:09;;;;;;;5.30;1.83;;;;;;;8.06;100.00;99426.03;7393787;19;20804;-46
2023/11/14 06:32:38;;;;;;;11.77;1.90;;;;;;;8.04;100.00;99423.41;7372092;19;20514;-46
2023/11/14 06:35:09;;;;;;;9.53;1.13;;;;;;;8.02;100.00;99425.06;7394745;19;20468;-47
2023/11/14 06:37:42;;;;;;;3.50;0.67;;;;;;;7.99;100.00;99437.81;7373154;19;20443;-45
2023/11/14 06:40:13;;;;;;;5.63;1.63;;;;;;;7.99;100.00;99436.94;7371696;19;20499;-50
2023/11/14 06:42:45;;;;;;;7.10;1.50;;;;;;;7.97;100.00;99437.78;7394646;19;20420;-45
2023/11/14 06:45:15;;;;;;;7.70;1.53;;;;;;;7.96;100.00;99436.00;7372062;19;20445;-50
2023/11/14 06:47:45;;;;;;;4.77;1.67;;;;;;;7.96;100.00;99441.16;7392449;19;20412;-49
2023/11/14 06:50:15;;;;;;;16.17;2.93;;;;;;;8.01;100.00;99428.47;7369942;19;20404;-47
2023/11/14 06:53:02;;;;;;;17.20;2.00;;;;;;;8.00;100.00;99446.41;7391292;19;20402;-47
2023/11/14 06:55:31;;;;;;;13.17;2.60;;;;;;;8.02;100.00;99444.75;7370964;19;20415;-45
2023/11/14 06:58:04;;;;;;;17.40;2.73;;;;;;;8.03;100.00;99477.31;7394512;19;20487;-50
2023/11/14 07:00:33;;;;;;;12.33;2.40;;;;;;;8.02;100.00;99475.56;7370772;19;20488;-51
2023/11/14 07:03:03;;;;;;;8.30;1.23;;;;;;;8.03;100.00;99461.88;7390810;19;20416;-49
2023/11/14 07:05:33;;;;;;;12.33;2.10;;;;;;;8.05;100.00;99468.81;7365658;19;20435;-49
2023/11/14 07:08:02;;;;;;;13.30;2.70;;;;;;;8.03;100.00;99465.34;7389904;19;20482;-50
2023/11/14 07:10:32;;;;;;;9.57;2.33;;;;;;;8.06;100.00;99467.13;7369227;19;20392;-46
2023/11/14 07:13:05;;;;;;;15.23;2.90;;;;;;;8.07;100.00;99450.91;7388934;19;20793;-49
2023/11/14 07:15:35;;;;;;;10.90;2.63;;;;;;;8.06;100.00;99464.56;7369943;19;20778;-45
2023/11/14 07:18:08;;;;;;;17.10;5.83;;;;;;;8.09;100.00;99452.69;7390858;19;20404;-48
2023/11/14 07:20:38;;;;;;;10.30;3.33;;;;;;;8.15;100.00;99448.56;7368784;19;20395;-48
2023/11/14 07:23:07;;;;;;;10.97;3.20;;;;;;;8.19;100.00;99435.84;7390730;19;20418;-48
2023/11/14 07:25:43;;;;;;;17.23;3.77;;;;;;;8.23;100.00;99422.28;7369306;19;20438;-46
2023/11/14 07:28:15;;;;;;;28.00;8.53;;;;;;;8.23;100.00;99429.09;7390977;19;20750;-46
2023/11/14 07:30:47;;;;;;;46.07;12.77;;;;;;;8.26;100.00;99426.66;7367300;19;20400;-47
2023/11/14 07:33:17;;;;;;;21.77;6.37;;;;;;;8.23;100.00;99423.97;7395630;19;20396;-48
2023/11/14 07:35:47;;;;;;;35.30;8.73;;;;;;;8.24;100.00;99426.59;7375644;19;20415;-50
2023/11/14 07:38:16;;;;;;;19.83;5.00;;;;;;;8.26;100.00;99428.34;7397475;19;20415;-47
2023/11/14 07:40:46;;;;;;;19.77;5.77;;;;;;;8.24;100.00;99424.03;7375430;19;20427;-51
2023/11/14 07:43:23;;;;;;;14.50;2.70;;;;;;;8.21;100.00;99415.34;7396823;19;20419;-46
2023/11/14 07:45:52;;;;;;;25.33;5.80;;;;;;;8.29;100.00;99413.00;7375440;19;20438;-45
2023/11/14 07:48:22;;;;;;;37.13;8.90;;;;;;;8.28;100.00;99406.13;7396436;19;20755;-46
2023/11/14 07:50:52;;;;;;;19.57;3.90;;;;;;;8.26;100.00;99412.91;7375227;19;20467;-48
2023/11/14 07:53:25;;;;;;;17.43;5.43;;;;;;;8.26;100.00;99413.81;7400275;19;20403;-46
2023/11/14 07:55:55;;;;;;;14.47;3.73;;;;;;;8.19;100.00;99376.75;7375509;19;20411;-45
2023/11/14 07:58:29;;;;;;;20.60;3.63;;;;;;;8.16;100.00;99350.97;7396432;19;20403;-46
2023/11/14 08:00:59;;;;;;;17.97;2.97;;;;;;;8.16;100.00;99345.81;7375647;19;20431;-46
2023/11/14 08:03:28;;;;;;;13.23;2.60;;;;;;;8.18;100.00;99353.59;7397507;19;21022;-51
2023/11/14 08:05:58;;;;;;;14.50;2.47;;;;;;;8.21;100.00;99328.00;7373728;19;20849;-46
2023/11/14 08:08:28;;;;;;;5.70;2.27;;;;;;;8.21;100.00;99349.41;7396923;19;20403;-50
2023/11/14 08:10:57;;;;;;;9.67;2.50;;;;;;;8.20;100.00;99351.94;7374543;19;20455;-51
2023/11/14 08:13:30;;;;;;;11.37;3.30;;;;;;;8.22;100.00;99391.41;7396416;19;20968;-47
2023/11/14 08:15:59;;;;;;;19.00;4.47;;;;;;;8.20;100.00;99423.91;7374602;19;20862;-45
2023/11/14 08:18:29;;;;;;;16.40;2.97;;;;;;;8.20;100.00;99445.31;7396342;19;20429;-46
2023/11/14 08:20:59;;;;;;;10.73;2.77;;;;;;;8.20;100.00;99460.72;7374631;19;20440;-45
2023/11/14 08:23:28;;;;;;;16.97;2.50;;;;;;;8.23;100.00;99455.69;7396606;19;20403;-48
2023/11/14 08:25:58;;;;;;;17.93;2.90;;;;;;;8.23;100.00;99476.25;7374200;19;20511;-47
2023/11/14 08:28:30;;;;;;;11.47;2.33;;;;;;;8.31;100.00;99467.91;7395843;19;20400;-50
2023/11/14 08:31:00;;;;;;;15.17;1.57;;;;;;;8.28;100.00;99503.75;7373524;19;20534;-48
2023/11/14 08:33:29;;;;;;;15.47;4.33;;;;;;;8.29;100.00;99500.38;7396317;19;21065;-44
2023/11/14 08:35:59;;;;;;;19.73;2.83;;;;;;;8.29;100.00;99497.78;7373914;19;20423;-46
2023/11/14 08:38:29;;;;;;;24.03;3.30;;;;;;;8.31;100.00;99527.00;7397734;19;20475;-47
2023/11/14 08:41:00;;;;;;;16.70;4.00;;;;;;;8.33;100.00;99543.34;7375916;19;20482;-46
2023/11/14 08:43:34;;;;;;;21.23;3.00;;;;;;;8.33;100.00;99566.47;7394964;19;20435;-50
2023/11/14 08:46:04;;;;;;;8.00;1.57;;;;;;;8.34;100.00;99552.78;7373360;19;20486;-50
2023/11/14 08:48:33;;;;;;;21.73;3.47;;;;;;;8.38;100.00;99580.34;7395495;19;20415;-45
2023/11/14 08:51:03;;;;;;;12.27;4.57;;;;;;;8.42;100.00;99582.19;7371907;19;20434;-47
2023/11/14 08:53:33;;;;;;;12.00;3.27;;;;;;;8.44;100.00;99587.34;7398566;19;20765;-45
2023/11/14 08:56:03;;;;;;;13.40;2.03;;;;;;;8.50;100.00;99560.16;7370975;19;20429;-50
2023/11/14 08:58:35;;;;;;;16.67;2.67;;;;;;;8.55;100.00;99582.63;7395701;19;20487;-51
2023/11/14 09:01:06;;;;;;;12.67;2.90;;;;;;;8.54;100.00;99573.13;7372366;19;20490;-49
2023/11/14 09:03:35;;;;;;;21.00;2.20;;;;;;;8.60;100.00;99568.19;7393470;19;20403;-46
2023/11/14 09:06:06;;;;;;;21.50;5.53;;;;;;;8.60;100.00;99548.50;7368419;19;20419;-47
2023/11/14 09:08:36;;;;;;;15.53;2.77;;;;;;;8.60;100.00;99557.91;7397745;19;20417;-46
2023/11/14 09:11:06;;;;;;;13.10;3.97;;;;;;;8.65;100.00;99520.34;7372082;19;20530;-46
2023/11/14 09:13:38;;;;;;;11.90;2.53;;;;;;;8.71;100.00;99507.66;7391701;19;20432;-49
2023/11/14 09:16:09;;;;;;;8.47;1.80;;;;;;;8.71;100.00;99494.81;7374766;19;20445;-47
2023/11/14 09:18:40;;;;;;;14.60;3.37;;;;;;;8.71;100.00;99469.09;7397149;19;20364;-45
2023/11/14 09:21:10;;;;;;;12.37;3.80;;;;;;;8.67;100.00;99449.25;7372609;19;20431;-46
2023/11/14 09:23:39;;;;;;;3.50;0.67;;;;;;;8.59;100.00;99413.06;7396240;19;20408;-46
2023/11/14 09:26:09;;;;;;;25.13;7.90;;;;;;;8.54;100.00;99418.88;7372773;19;20441;-49
2023/11/14 09:28:42;;;;;;;22.87;3.37;;;;;;;8.51;100.00;99443.69;7396817;19;20479;-51
2023/11/14 09:31:12;;;;;;;15.13;3.10;;;;;;;8.55;100.00;99425.78;7371401;19;20431;-48
2023/11/14 09:33:42;;;;;;;8.97;2.27;;;;;;;8.57;100.00;99417.25;7395637;19;20487;-44
2023/11/14 09:36:12;;;;;;;11.80;1.90;;;;;;;8.62;100.00;99378.84;7372302;19;20880;-46
2023/11/14 09:38:43;;;;;;;10.40;2.33;;;;;;;8.64;100.00;99348.91;7395366;19;20411;-49
2023/11/14 09:41:13;;;;;;;14.27;2.27;;;;;;;8.72;100.00;99318.25;7372799;19;20411;-49
2023/11/14 09:43:46;;;;;;;9.53;1.80;;;;;;;8.78;100.00;99293.56;7395271;19;20411;-47
2023/11/14 09:46:16;;;;;;;21.73;2.90;;;;;;;8.85;100.00;99257.69;7372416;19;20430;-50
2023/11/14 09:48:46;;;;;;;13.10;1.83;;;;;;;8.87;100.00;99217.47;7395187;19;20419;-47
2023/11/14 09:51:16;;;;;;;9.73;1.37;;;;;;;8.89;100.00;99202.94;7372067;19;20427;-45
2023/11/14 09:53:46;;;;;;;11.63;2.40;;;;;;;8.87;100.00;99166.03;7395931;19;20433;-51
2023/11/14 09:56:15;;;;;;;13.30;3.00;;;;;;;8.83;100.00;99161.66;7372468;19;20494;-45
2023/11/14 09:58:48;;;;;;;16.00;5.03;;;;;;;8.86;100.00;99166.84;7394548;19;20399;-47
2023/11/14 10:01:18;;;;;;;13.17;1.93;;;;;;;8.89;100.00;99143.78;7371762;19;20479;-46
2023/11/14 10:03:48;;;;;;;18.70;4.00;;;;;;;8.88;100.00;99155.75;7396516;19;20418;-47
2023/11/14 10:06:18;;;;;;;7.60;1.73;;;;;;;8.98;100.00;99125.13;7369608;19;20427;-44
2023/11/14 10:08:49;;;;;;;9.80;2.80;;;;;;;9.05;100.00;99134.69;7390880;19;20424;-45
2023/11/14 10:11:43;;;;;;;17.40;2.60;;;;;;;9.08;100.00;99121.03;7371535;19;20426;-46
2023/11/14 10:14:45;;;;;;;18.03;2.67;;;;;;;9.12;100.00;99136.56;7395631;19;20498;-44
2023/11/14 10:17:17;;;;;;;5.97;2.10;;;;;;;9.15;100.00;99110.03;7370018;19;20427;-49
2023/11/14 10:20:01;;;;;;;11.13;2.10;;;;;;;9.16;100.00;99109.19;7395670;19;20391;-45
2023/11/14 10:22:33;;;;;;;16.83;2.90;;;;;;;9.14;100.00;99098.88;7372261;19;20426;-42
2023/11/14 10:25:03;;;;;;;16.77;2.20;;;;;;;9.14;100.00;99108.31;7395112;19;20424;-44
2023/11/14 10:27:35;;;;;;;8.03;1.23;;;;;;;9.12;100.00;99097.13;7371057;19;20486;-47
2023/11/14 10:30:09;;;;;;;10.73;2.60;;;;;;;9.14;100.00;99098.00;7392753;19;20407;-47
2023/11/14 10:32:39;;;;;;;8.93;2.03;;;;;;;9.21;100.00;99084.44;7368956;19;20456;-45
2023/11/14 10:35:17;;;;;;;19.30;4.27;;;;;;;9.26;100.00;99081.94;7389871;19;20459;-46
2023/11/14 10:37:47;;;;;;;11.57;1.70;;;;;;;9.26;100.00;99072.53;7395682;19;20845;-47
2023/11/14 10:40:17;;;;;;;16.70;2.60;;;;;;;9.23;100.00;99082.75;7371949;19;20414;-45
2023/11/14 10:42:56;;;;;;;14.07;2.27;;;;;;;9.26;100.00;99092.25;7391344;19;21036;-46
2023/11/14 10:45:29;;;;;;;14.17;2.23;;;;;;;9.29;100.00;99088.03;7369389;19;20450;-47
2023/11/14 10:47:59;;;;;;;12.83;1.80;;;;;;;9.44;100.00;99096.91;7392311;19;20407;-43
2023/11/14 10:50:30;;;;;;;9.03;1.77;;;;;;;9.49;100.00;99090.13;7369589;19;20411;-50
2023/11/14 10:53:00;;;;;;;13.63;2.83;;;;;;;9.51;100.00;99085.88;7391521;19;20951;-46
2023/11/14 10:55:32;;;;;;;4.87;1.27;;;;;;;9.51;100.00;99074.72;7369686;19;20426;-43
2023/11/14 10:58:02;;;;;;;16.63;3.63;;;;;;;9.57;100.00;99075.72;7391928;19;20424;-43
2023/11/14 11:00:34;;;;;;;15.17;2.43;;;;;;;9.64;100.00;99083.56;7369321;19;20414;-42
2023/11/14 11:03:06;;;;;;;5.77;1.80;;;;;;;9.62;100.00;99075.78;7391823;19;20403;-44
2023/11/14 11:05:37;;;;;;;10.03;1.90;;;;;;;9.62;100.00;99092.94;7368304;19;20391;-43
2023/11/14 11:08:07;;;;;;;10.57;1.70;;;;;;;9.55;100.00;99086.81;7401321;19;20413;-43
2023/11/14 11:10:42;;;;;;;11.33;1.57;;;;;;;9.52;100.00;99074.75;7378237;19;20395;-47
2023/11/14 11:13:15;;;;;;;10.87;1.87;;;;;;;9.57;100.00;99092.84;7393735;19;20507;-47
2023/11/14 11:15:49;;;;;;;7.17;1.17;;;;;;;9.55;100.00;99067.06;7374272;19;20481;-49
2023/11/14 11:18:25;;;;;;;11.27;1.73;;;;;;;9.62;100.00;99080.06;7398870;19;20395;-45
2023/11/14 11:21:09;;;;;;;8.87;1.77;;;;;;;9.54;100.00;99091.09;7375542;19;20426;-50
2023/11/14 11:24:07;;;;;;;5.10;1.37;;;;;;;9.57;100.00;99088.59;7397960;19;20501;-48
2023/11/14 11:27:12;;;;;;;14.03;2.13;;;;;;;9.67;100.00;99101.63;7376465;19;20431;-48
2023/11/14 11:29:54;;;;;;;17.40;2.43;;;;;;;9.65;100.00;99101.59;7400912;19;20403;-47
2023/11/14 11:32:28;;;;;;;15.40;3.30;;;;;;;9.59;100.00;99104.91;7369855;19;20895;-45
2023/11/14 11:35:30;;;;;;;16.13;1.43;;;;;;;9.59;100.00;99109.22;7398898;19;20414;-48
2023/11/14 11:38:09;;;;;;;7.53;1.23;;;;;;;9.57;100.00;99087.69;7378981;19;20442;-46
2023/11/14 11:41:12;;;;;;;11.70;1.80;;;;;;;9.55;100.00;99079.94;7376983;19;20387;-46
2023/11/14 11:43:46;;;;;;;8.20;1.10;;;;;;;9.62;100.00;99100.66;7400125;19;20423;-48
2023/11/14 11:46:38;;;;;;;6.17;1.53;;;;;;;9.69;100.00;99092.22;7375204;19;20439;-46